createdAt,value
2018-09-13T00:03:46.627Z,7.05
2018-09-13T00:09:41.603Z,6.7
2018-09-13T00:15:36.646Z,6.66
2018-09-13T00:21:31.608Z,8.53
2018-09-13T00:27:26.603Z,6.31
2018-09-13T00:33:21.647Z,6.47
2018-09-13T00:39:16.615Z,5.98
2018-09-13T00:45:11.628Z,6.32
2018-09-13T00:51:06.631Z,6.79
2018-09-13T00:57:01.652Z,6.25
2018-09-13T01:02:56.656Z,6.08
2018-09-13T01:08:51.650Z,6.53
2018-09-13T01:14:46.695Z,6.38
2018-09-13T01:20:41.654Z,7
2018-09-13T01:26:36.647Z,6.65
2018-09-13T01:32:31.664Z,6.32
2018-09-13T01:38:26.672Z,6.92
2018-09-13T01:44:21.664Z,6.07
2018-09-13T01:50:16.689Z,6.06
2018-09-13T01:56:11.726Z,6.57
2018-09-13T02:02:06.678Z,6.26
2018-09-13T02:08:01.713Z,6.25
2018-09-13T02:13:56.696Z,5.99
2018-09-13T02:19:51.703Z,6.58
2018-09-13T02:25:46.710Z,6.9
2018-09-13T02:31:41.754Z,7.34
2018-09-13T02:37:36.723Z,7.11
2018-09-13T02:43:31.727Z,6.64
2018-09-13T02:49:26.740Z,6.76
2018-09-13T02:55:21.729Z,6.56
2018-09-13T03:01:16.741Z,6.25
2018-09-13T03:07:11.732Z,6.5
2018-09-13T03:13:06.748Z,6.66
2018-09-13T03:19:01.769Z,6.87
2018-09-13T03:24:56.751Z,6.34
2018-09-13T03:30:51.776Z,6.85
2018-09-13T03:36:46.749Z,6.94
2018-09-13T03:42:41.752Z,6.04
2018-09-13T03:48:36.771Z,6.48
2018-09-13T03:54:31.779Z,6.41
2018-09-13T04:00:26.764Z,6.35
2018-09-13T04:06:21.793Z,6.55
2018-09-13T04:12:16.791Z,6.92
2018-09-13T04:18:11.781Z,6.51
2018-09-13T04:24:06.787Z,7
2018-09-13T04:30:01.911Z,6.35
2018-09-13T04:35:56.976Z,6.63
2018-09-13T04:41:51.806Z,6.57
2018-09-13T04:47:46.809Z,6.64
2018-09-13T04:53:41.823Z,7.01
2018-09-13T04:59:36.842Z,6.75
2018-09-13T05:05:31.827Z,6.22
2018-09-13T05:11:26.838Z,6.81
2018-09-13T05:17:21.863Z,6.33
2018-09-13T05:23:16.845Z,8.27
2018-09-13T05:29:11.850Z,10.68
2018-09-13T05:35:06.835Z,8.75
2018-09-13T05:41:01.851Z,7.18
2018-09-13T05:46:56.867Z,7.43
2018-09-13T05:52:51.872Z,7.55
2018-09-13T05:58:46.859Z,7.05
2018-09-13T06:04:41.879Z,8.54
2018-09-13T06:10:36.871Z,9.16
2018-09-13T06:16:31.892Z,9.53
2018-09-13T06:22:26.994Z,9.31
2018-09-13T06:28:21.939Z,8.24
2018-09-13T06:34:16.967Z,7.81
2018-09-13T06:40:11.915Z,7.91
2018-09-13T06:46:06.949Z,7.67
2018-09-13T06:52:01.886Z,7.26
2018-09-13T06:57:56.912Z,8.35
2018-09-13T07:03:51.927Z,7.48
2018-09-13T07:09:46.922Z,7.27
2018-09-13T07:15:41.909Z,7.37
2018-09-13T07:21:36.926Z,6.89
2018-09-13T07:27:31.934Z,7.06
2018-09-13T07:33:26.920Z,7.88
2018-09-13T07:39:21.943Z,7.26
2018-09-13T07:45:16.945Z,7.56
2018-09-13T07:51:11.979Z,7.46
2018-09-13T07:57:07.543Z,7.16
2018-09-13T08:03:02.003Z,8.8
2018-09-13T08:08:56.982Z,9.54
2018-09-13T08:14:51.967Z,9.82
2018-09-13T08:20:46.967Z,8.72
2018-09-13T08:26:41.964Z,10.77
2018-09-13T08:32:36.997Z,12.24
2018-09-13T08:38:32.053Z,10.11
2018-09-13T08:44:26.990Z,9.62
2018-09-13T08:50:21.995Z,9.56
2018-09-13T08:56:16.994Z,12.54
2018-09-13T09:02:12.012Z,11.84
2018-09-13T09:08:07.053Z,9.32
2018-09-13T09:14:02.046Z,9.02
2018-09-13T09:19:57.030Z,8.16
2018-09-13T09:25:52.118Z,10.23
2018-09-13T09:31:47.020Z,8.43
2018-09-13T09:37:42.029Z,9.61
2018-09-13T09:43:37.038Z,9.27
2018-09-13T09:49:32.048Z,7.83
2018-09-13T09:55:27.030Z,8
2018-09-13T10:01:22.092Z,8.39
2018-09-13T10:07:17.121Z,8.11
2018-09-13T10:13:12.088Z,8.23
2018-09-13T10:19:07.045Z,8.41
2018-09-13T10:25:02.097Z,9.3
2018-09-13T10:30:57.072Z,9.05
2018-09-13T10:36:52.096Z,7.94
2018-09-13T10:42:47.064Z,7.36
2018-09-13T10:48:42.074Z,7.41
2018-09-13T10:54:37.103Z,7.83
2018-09-13T11:00:32.145Z,7.46
2018-09-13T11:06:27.093Z,7.69
2018-09-13T11:12:22.108Z,7.87
2018-09-13T11:18:17.127Z,7.29
2018-09-13T11:24:12.146Z,6.9
2018-09-13T11:30:07.140Z,7.08
2018-09-13T11:36:02.145Z,7.04
2018-09-13T11:41:57.166Z,7.46
2018-09-13T11:47:52.134Z,7.26
2018-09-13T11:53:47.125Z,7.63
2018-09-13T11:59:42.152Z,6.91
2018-09-13T12:05:37.789Z,6.58
2018-09-13T12:11:32.136Z,7.38
2018-09-13T12:17:27.156Z,7.2
2018-09-13T12:23:22.179Z,7.43
2018-09-13T12:29:17.170Z,8.42
2018-09-13T12:35:12.177Z,7.56
2018-09-13T12:41:07.194Z,7.56
2018-09-13T12:47:02.197Z,7.86
2018-09-13T12:52:57.198Z,7.92
2018-09-13T12:58:52.744Z,7.32
2018-09-13T13:04:47.213Z,8.27
2018-09-13T13:10:42.199Z,8.16
2018-09-13T13:16:37.233Z,8.48
2018-09-13T13:22:32.201Z,8.62
2018-09-13T13:28:27.210Z,9.5
2018-09-13T13:34:22.248Z,8.21
2018-09-13T13:40:17.215Z,7.47
2018-09-13T13:46:12.255Z,7.1
2018-09-13T13:52:07.265Z,6.38
2018-09-13T13:58:02.262Z,6.08
2018-09-13T14:03:57.255Z,5.81
2018-09-13T14:09:52.463Z,6.34
2018-09-13T14:15:47.245Z,5.91
2018-09-13T14:21:42.279Z,5.86
2018-09-13T14:27:37.267Z,5.91
2018-09-13T14:33:32.274Z,6.3
2018-09-13T14:39:27.301Z,6.41
2018-09-13T14:45:22.267Z,6.76
2018-09-13T14:51:17.292Z,6.59
2018-09-13T14:57:12.347Z,6.19
2018-09-13T15:03:07.286Z,6.32
2018-09-13T15:09:02.310Z,6.38
2018-09-13T15:14:57.317Z,6.66
2018-09-13T15:20:52.319Z,6.88
2018-09-13T15:26:47.313Z,7.75
2018-09-13T15:32:42.337Z,6.92
2018-09-13T15:38:37.413Z,7.44
2018-09-13T15:44:32.334Z,7.12
2018-09-13T15:50:27.344Z,7.63
2018-09-13T15:56:22.356Z,7.84
2018-09-13T16:02:17.365Z,7.89
2018-09-13T16:08:12.392Z,7.84
2018-09-13T16:14:07.355Z,8.42
2018-09-13T16:20:02.727Z,8.57
2018-09-13T16:25:57.437Z,7.86
2018-09-13T16:31:52.376Z,8.21
2018-09-13T16:37:47.369Z,8.85
2018-09-13T16:43:42.393Z,8.5
2018-09-13T16:49:37.380Z,8.24
2018-09-13T16:55:32.421Z,7.73
2018-09-13T17:01:27.385Z,7.96
2018-09-13T17:07:22.400Z,8.04
2018-09-13T17:13:17.420Z,7.62
2018-09-13T17:19:12.441Z,7.54
2018-09-13T17:25:07.443Z,8.4
2018-09-13T17:31:02.414Z,8.62
2018-09-13T17:36:57.462Z,10.52
2018-09-13T17:42:52.454Z,9.38
2018-09-13T17:48:47.456Z,8.23
2018-09-13T17:54:42.456Z,8.49
2018-09-13T18:00:37.462Z,9.4
2018-09-13T18:06:32.437Z,8.13
2018-09-13T18:12:27.497Z,9.07
2018-09-13T18:18:22.562Z,8.53
2018-09-13T18:24:17.455Z,8.16
2018-09-13T18:30:12.542Z,9.41
2018-09-13T18:36:07.464Z,8.53
2018-09-13T18:42:02.481Z,8.45
2018-09-13T18:47:57.497Z,8.9
2018-09-13T18:53:52.588Z,8.23
2018-09-13T18:59:47.517Z,8.36
2018-09-13T19:05:42.517Z,9.03
2018-09-13T19:11:37.570Z,8.4
2018-09-13T19:17:32.521Z,8.79
2018-09-13T19:23:27.540Z,8.57
2018-09-13T19:29:22.511Z,9.33
2018-09-13T19:35:17.510Z,9.47
2018-09-13T19:41:12.566Z,9.72
2018-09-13T19:47:07.544Z,9.3
2018-09-13T19:53:02.525Z,9.59
2018-09-13T19:58:57.526Z,9.01
2018-09-13T20:04:52.563Z,10.52
2018-09-13T20:10:47.542Z,9.53
2018-09-13T20:16:42.585Z,9.92
2018-09-13T20:22:37.549Z,10.48
2018-09-13T20:28:32.630Z,9.4
2018-09-13T20:34:27.573Z,10.35
2018-09-13T20:40:22.603Z,9.83
2018-09-13T20:46:17.577Z,9.21
2018-09-13T20:52:12.592Z,10.37
2018-09-13T20:58:07.581Z,10.3
2018-09-13T21:04:02.598Z,10.56
2018-09-13T21:09:57.655Z,10.53
2018-09-13T21:15:52.587Z,11.23
2018-09-13T21:21:47.594Z,11.25
2018-09-13T21:27:42.609Z,10.66
2018-09-13T21:33:37.600Z,10.18
2018-09-13T21:39:32.651Z,10.31
2018-09-13T21:45:27.653Z,10.87
2018-09-13T21:51:22.632Z,10.19
2018-09-13T21:57:17.655Z,10.77
2018-09-13T22:03:12.760Z,11.45
2018-09-13T22:09:07.634Z,11.78
2018-09-13T22:15:02.945Z,11.67
2018-09-13T22:20:57.635Z,11.23
2018-09-13T22:26:52.647Z,11.43
2018-09-13T22:32:47.670Z,11.92
2018-09-13T22:38:42.681Z,12.53
2018-09-13T22:44:37.669Z,11.21
2018-09-13T22:50:32.667Z,11.24
2018-09-13T22:56:27.661Z,11.4
2018-09-13T23:02:22.663Z,10.24
2018-09-13T23:08:17.695Z,10.79
2018-09-13T23:14:12.679Z,11.79
2018-09-13T23:20:07.754Z,11.55
2018-09-13T23:26:02.697Z,11.64
2018-09-13T23:31:57.701Z,11.51
2018-09-13T23:37:52.702Z,12.32
2018-09-13T23:43:47.718Z,11.27
2018-09-13T23:49:42.712Z,12.06
2018-09-13T23:55:37.725Z,13.01
